createdAt,value
2023-02-19T00:00:43.478Z,85.26
2023-02-19T00:03:35.753Z,84.82
2023-02-19T00:06:10.044Z,84.78
2023-02-19T00:08:41.927Z,84.68
2023-02-19T00:11:16.544Z,83.97
2023-02-19T00:13:49.981Z,83.76
2023-02-19T00:16:23.878Z,83.36
2023-02-19T00:18:58.634Z,83.26
2023-02-19T00:21:30.550Z,82.91
2023-02-19T00:24:06.194Z,82.83
2023-02-19T00:26:39.740Z,82.85
2023-02-19T00:29:15.158Z,82.98
2023-02-19T00:31:47.639Z,82.64
2023-02-19T00:34:19.783Z,82.32
2023-02-19T00:36:51.632Z,81.94
2023-02-19T00:39:23.732Z,82.11
2023-02-19T00:41:55.593Z,81.84
2023-02-19T00:44:27.576Z,82.06
2023-02-19T00:46:59.630Z,82.00
2023-02-19T00:49:31.784Z,81.68
2023-02-19T00:52:03.658Z,81.49
2023-02-19T00:54:36.032Z,81.78
2023-02-19T00:57:08.379Z,82.05
2023-02-19T00:59:40.546Z,81.67
2023-02-19T01:02:12.558Z,81.74
2023-02-19T01:04:45.284Z,81.72
2023-02-19T01:07:17.570Z,81.84
2023-02-19T01:09:49.831Z,81.44
2023-02-19T01:12:21.804Z,81.26
2023-02-19T01:14:56.243Z,81.49
2023-02-19T01:17:28.217Z,81.48
2023-02-19T01:20:00.300Z,81.14
2023-02-19T01:22:32.186Z,80.82
2023-02-19T01:25:05.052Z,80.53
2023-02-19T01:27:36.897Z,80.56
2023-02-19T01:30:10.816Z,80.30
2023-02-19T01:32:42.672Z,79.97
2023-02-19T01:35:14.471Z,79.77
2023-02-19T01:37:46.278Z,79.70
2023-02-19T01:40:18.352Z,79.50
2023-02-19T01:42:52.827Z,79.48
2023-02-19T01:45:28.118Z,79.76
2023-02-19T01:48:06.046Z,79.34
2023-02-19T01:50:42.062Z,79.31
2023-02-19T01:53:16.044Z,79.46
2023-02-19T01:55:50.177Z,78.88
2023-02-19T01:58:20.425Z,78.77
2023-02-19T02:00:52.968Z,78.73
2023-02-19T02:03:25.125Z,78.63
2023-02-19T02:06:01.901Z,78.98
2023-02-19T02:08:51.716Z,79.05
2023-02-19T02:11:23.859Z,79.17
2023-02-19T02:13:56.408Z,79.23
2023-02-19T02:16:34.942Z,79.10
2023-02-19T02:19:12.968Z,79.34
2023-02-19T02:22:03.560Z,79.42
2023-02-19T02:25:16.517Z,79.68
2023-02-19T02:27:57.712Z,79.60
2023-02-19T02:30:44.293Z,79.98
2023-02-19T02:33:22.837Z,80.23
2023-02-19T02:35:58.005Z,80.32
2023-02-19T02:38:32.364Z,80.61
2023-02-19T02:41:05.020Z,81.16
2023-02-19T02:43:37.256Z,81.22
2023-02-19T02:46:10.908Z,81.57
2023-02-19T02:48:44.985Z,81.75
2023-02-19T02:51:20.827Z,81.98
2023-02-19T02:54:15.102Z,82.33
2023-02-19T02:56:48.330Z,82.57
2023-02-19T02:59:23.227Z,82.58
2023-02-19T03:02:12.996Z,82.92
2023-02-19T03:05:08.239Z,83.07
2023-02-19T03:07:42.895Z,83.36
2023-02-19T03:10:18.954Z,83.15
2023-02-19T03:13:09.790Z,83.33
2023-02-19T03:16:07.087Z,83.43
2023-02-19T03:18:57.453Z,83.66
2023-02-19T03:21:31.485Z,83.74
2023-02-19T03:24:21.104Z,83.65
2023-02-19T03:26:55.039Z,83.81
2023-02-19T03:29:29.369Z,83.72
2023-02-19T03:32:03.528Z,83.82
2023-02-19T03:34:37.915Z,83.84
2023-02-19T03:37:13.777Z,83.76
2023-02-19T03:39:46.128Z,83.89
2023-02-19T03:42:26.506Z,83.81
2023-02-19T03:45:11.105Z,83.65
2023-02-19T03:47:49.190Z,83.72
2023-02-19T03:50:22.983Z,83.76
2023-02-19T03:53:03.428Z,83.58
2023-02-19T03:55:41.119Z,83.57
2023-02-19T03:58:18.053Z,83.57
2023-02-19T04:00:54.295Z,83.55
2023-02-19T04:03:30.583Z,83.52
2023-02-19T04:06:05.760Z,83.51
2023-02-19T04:08:38.928Z,83.56
2023-02-19T04:11:11.719Z,83.58
2023-02-19T04:13:46.866Z,83.29
2023-02-19T04:16:21.735Z,83.46
2023-02-19T04:18:58.853Z,83.35
2023-02-19T04:21:32.028Z,83.34
2023-02-19T04:24:08.263Z,83.44
2023-02-19T04:26:40.504Z,83.41
2023-02-19T04:29:12.494Z,83.38
2023-02-19T04:31:44.407Z,83.26
2023-02-19T04:34:16.337Z,83.43
2023-02-19T04:36:48.156Z,83.51
2023-02-19T04:39:20.076Z,83.21
2023-02-19T04:41:52.104Z,83.37
2023-02-19T04:44:24.106Z,83.29
2023-02-19T04:46:56.158Z,83.19
2023-02-19T04:49:27.987Z,83.19
2023-02-19T04:52:02.103Z,83.29
2023-02-19T04:54:34.052Z,83.19
2023-02-19T04:57:06.110Z,83.30
2023-02-19T04:59:38.308Z,83.18
2023-02-19T05:02:10.369Z,83.27
2023-02-19T05:04:42.259Z,83.43
2023-02-19T05:07:14.319Z,83.53
2023-02-19T05:09:46.824Z,83.61
2023-02-19T05:12:18.840Z,83.76
2023-02-19T05:14:50.978Z,83.78
2023-02-19T05:17:22.765Z,83.75
2023-02-19T05:19:54.544Z,84.02
2023-02-19T05:22:26.483Z,83.90
2023-02-19T05:24:58.596Z,84.04
2023-02-19T05:27:33.877Z,84.27
2023-02-19T05:30:07.201Z,84.30
2023-02-19T05:32:39.515Z,84.47
2023-02-19T05:35:11.417Z,84.84
2023-02-19T05:37:43.485Z,84.75
2023-02-19T05:40:15.730Z,84.83
2023-02-19T05:42:47.822Z,84.85
2023-02-19T05:45:20.124Z,85.04
2023-02-19T05:47:52.928Z,84.88
2023-02-19T05:50:24.918Z,84.95
2023-02-19T05:52:56.926Z,85.12
2023-02-19T05:55:29.017Z,84.94
2023-02-19T05:58:01.150Z,85.00
2023-02-19T06:00:34.347Z,85.10
2023-02-19T06:03:06.231Z,84.94
2023-02-19T06:05:38.379Z,85.00
2023-02-19T06:08:10.837Z,85.22
2023-02-19T06:10:43.182Z,85.25
2023-02-19T06:13:17.526Z,85.30
2023-02-19T06:15:49.745Z,85.04
2023-02-19T06:18:21.527Z,85.22
2023-02-19T06:20:53.655Z,85.05
2023-02-19T06:23:25.627Z,85.18
2023-02-19T06:26:03.759Z,85.13
2023-02-19T06:28:35.655Z,85.31
2023-02-19T06:31:08.554Z,85.40
2023-02-19T06:33:41.535Z,85.14
2023-02-19T06:36:17.287Z,85.18
2023-02-19T06:38:49.189Z,85.18
2023-02-19T06:41:21.308Z,85.33
2023-02-19T06:43:53.116Z,84.75
2023-02-19T06:46:25.487Z,84.85
2023-02-19T06:48:57.292Z,85.11
2023-02-19T06:51:30.015Z,85.04
2023-02-19T06:54:03.384Z,84.91
2023-02-19T06:56:37.783Z,84.96
2023-02-19T06:59:11.541Z,85.11
2023-02-19T07:01:43.522Z,84.88
2023-02-19T07:04:15.931Z,85.07
2023-02-19T07:06:48.179Z,85.13
2023-02-19T07:09:21.221Z,85.03
2023-02-19T07:11:54.717Z,85.20
2023-02-19T07:14:26.592Z,85.11
2023-02-19T07:16:58.602Z,84.93
2023-02-19T07:19:30.531Z,85.17
2023-02-19T07:22:02.508Z,85.09
2023-02-19T07:24:34.549Z,85.20
2023-02-19T07:27:06.548Z,85.28
2023-02-19T07:29:38.436Z,85.40
2023-02-19T07:32:10.489Z,85.18
2023-02-19T07:34:42.537Z,85.03
2023-02-19T07:37:14.572Z,85.04
2023-02-19T07:39:46.666Z,85.03
2023-02-19T07:42:18.923Z,85.23
2023-02-19T07:44:50.961Z,85.40
2023-02-19T07:47:22.959Z,84.91
2023-02-19T07:49:54.848Z,84.83
2023-02-19T07:52:26.858Z,84.68
2023-02-19T07:54:58.957Z,84.66
2023-02-19T07:57:31.866Z,84.54
2023-02-19T08:00:04.114Z,84.45
2023-02-19T08:02:53.723Z,84.49
2023-02-19T08:05:25.672Z,84.47
2023-02-19T08:07:57.800Z,84.16
2023-02-19T08:10:48.924Z,84.11
2023-02-19T08:13:22.682Z,84.01
2023-02-19T08:15:59.636Z,83.54
2023-02-19T08:18:39.545Z,84.56
2023-02-19T08:21:11.654Z,83.46
2023-02-19T08:23:43.970Z,83.30
2023-02-19T08:26:16.154Z,83.18
2023-02-19T08:28:49.046Z,82.95
2023-02-19T08:31:21.133Z,82.99
2023-02-19T08:33:53.265Z,82.65
2023-02-19T08:36:26.230Z,82.34
2023-02-19T08:38:58.371Z,82.20
2023-02-19T08:41:30.463Z,81.95
2023-02-19T08:44:02.681Z,81.68
2023-02-19T08:46:34.956Z,81.85
2023-02-19T08:49:07.029Z,81.99
2023-02-19T08:51:39.061Z,82.08
2023-02-19T08:54:11.138Z,81.72
2023-02-19T08:56:43.326Z,82.03
2023-02-19T08:59:15.454Z,81.67
2023-02-19T09:01:47.392Z,81.42
2023-02-19T09:04:19.500Z,81.56
2023-02-19T09:06:51.728Z,81.43
2023-02-19T09:09:23.979Z,81.29
2023-02-19T09:11:55.917Z,81.11
2023-02-19T09:14:28.215Z,80.93
2023-02-19T09:17:00.229Z,80.62
2023-02-19T09:19:32.404Z,80.34
2023-02-19T09:22:04.532Z,80.62
2023-02-19T09:24:36.792Z,80.20
2023-02-19T09:27:08.658Z,80.15
2023-02-19T09:29:40.819Z,79.72
2023-02-19T09:32:12.740Z,79.56
2023-02-19T09:34:44.840Z,78.76
2023-02-19T09:37:16.675Z,78.37
2023-02-19T09:39:48.703Z,78.37
2023-02-19T09:42:21.931Z,77.93
2023-02-19T09:44:55.607Z,78.47
2023-02-19T09:47:29.073Z,78.90
2023-02-19T09:50:04.509Z,77.84
2023-02-19T09:52:40.255Z,77.49
2023-02-19T09:55:18.948Z,77.15
2023-02-19T09:57:51.682Z,77.64
2023-02-19T10:00:28.221Z,77.43
2023-02-19T10:03:05.635Z,77.92
2023-02-19T10:05:38.104Z,77.18
2023-02-19T10:08:14.459Z,76.06
2023-02-19T10:10:46.930Z,75.93
2023-02-19T10:13:22.915Z,75.63
2023-02-19T10:15:56.623Z,75.99
2023-02-19T10:18:30.945Z,75.66
2023-02-19T10:21:03.315Z,75.67
2023-02-19T10:23:35.468Z,73.21
2023-02-19T10:26:07.756Z,71.85
2023-02-19T10:28:41.016Z,71.93
2023-02-19T10:31:20.761Z,71.66
2023-02-19T10:33:54.540Z,72.74
2023-02-19T10:36:32.431Z,72.53
2023-02-19T10:39:07.488Z,72.21
2023-02-19T10:41:44.408Z,73.30
2023-02-19T10:44:20.157Z,72.71
2023-02-19T10:46:55.473Z,72.38
2023-02-19T10:49:30.397Z,71.98
2023-02-19T10:52:05.898Z,71.72
2023-02-19T10:54:37.799Z,71.67
2023-02-19T10:57:30.374Z,71.38
2023-02-19T11:00:04.328Z,70.34
2023-02-19T11:02:39.240Z,67.94
2023-02-19T11:05:23.327Z,67.22
2023-02-19T11:07:57.455Z,66.59
2023-02-19T11:10:31.384Z,68.08
2023-02-19T11:13:05.165Z,68.49
2023-02-19T11:15:38.114Z,68.35
2023-02-19T11:18:25.188Z,68.60
2023-02-19T11:20:59.296Z,67.44
2023-02-19T11:23:30.048Z,68.32
2023-02-19T11:26:04.976Z,68.46
2023-02-19T11:28:38.789Z,69.02
2023-02-19T11:31:23.046Z,69.22
2023-02-19T11:33:56.064Z,68.15
2023-02-19T11:36:31.040Z,68.50
2023-02-19T11:39:13.225Z,67.90
2023-02-19T11:42:24.260Z,68.09
2023-02-19T11:45:06.654Z,67.90
2023-02-19T11:48:02.298Z,67.11
2023-02-19T11:50:47.140Z,67.26
2023-02-19T11:53:27.179Z,67.27
2023-02-19T11:56:13.594Z,66.99
2023-02-19T11:59:02.977Z,66.86
2023-02-19T12:02:00.756Z,66.72
2023-02-19T12:05:14.096Z,67.75
2023-02-19T12:08:08.232Z,66.85
2023-02-19T12:10:50.174Z,67.02
2023-02-19T12:13:28.349Z,66.03
2023-02-19T12:16:19.543Z,66.85
2023-02-19T12:19:21.209Z,66.02
2023-02-19T12:22:06.617Z,66.21
2023-02-19T12:24:59.057Z,66.32
2023-02-19T12:27:41.476Z,66.06
2023-02-19T12:30:29.768Z,65.57
2023-02-19T12:33:34.075Z,65.89
2023-02-19T12:36:13.058Z,65.33
2023-02-19T12:38:48.632Z,65.79
2023-02-19T12:41:50.266Z,66.11
2023-02-19T12:44:28.100Z,66.76
2023-02-19T12:47:04.131Z,66.23
2023-02-19T12:49:41.780Z,66.61
2023-02-19T12:52:17.155Z,66.56
2023-02-19T12:54:51.240Z,67.02
2023-02-19T12:57:25.652Z,66.22
2023-02-19T13:00:03.944Z,66.52
2023-02-19T13:02:39.998Z,66.93
2023-02-19T13:05:19.839Z,66.47
2023-02-19T13:08:00.438Z,66.36
2023-02-19T13:10:35.387Z,65.26
2023-02-19T13:13:11.596Z,65.30
2023-02-19T13:15:48.889Z,65.19
2023-02-19T13:18:24.130Z,65.35
2023-02-19T13:20:56.735Z,64.77
2023-02-19T13:23:48.488Z,63.84
2023-02-19T13:26:31.401Z,64.06
2023-02-19T13:29:21.859Z,63.43
2023-02-19T13:32:21.161Z,62.47
2023-02-19T13:35:02.447Z,62.86
2023-02-19T13:37:36.844Z,63.03
2023-02-19T13:40:21.583Z,62.26
2023-02-19T13:42:57.292Z,61.39
2023-02-19T13:45:35.326Z,61.69
2023-02-19T13:48:26.642Z,61.18
2023-02-19T13:51:34.248Z,61.12
2023-02-19T13:54:21.778Z,61.56
2023-02-19T13:57:28.583Z,61.36
2023-02-19T14:00:00.764Z,60.49
2023-02-19T14:02:35.309Z,60.23
2023-02-19T14:05:10.142Z,60.87
2023-02-19T14:07:52.690Z,59.92
2023-02-19T14:11:28.281Z,60.52
2023-02-19T14:14:10.019Z,60.85
2023-02-19T14:17:04.957Z,61.25
2023-02-19T14:20:10.068Z,60.72
2023-02-19T14:23:03.421Z,60.42
2023-02-19T14:25:47.577Z,59.77
2023-02-19T14:28:27.258Z,60.77
2023-02-19T14:31:01.845Z,60.11
2023-02-19T14:33:36.021Z,60.35
2023-02-19T14:36:15.038Z,60.78
2023-02-19T14:38:49.654Z,59.49
2023-02-19T14:41:24.169Z,59.44
2023-02-19T14:43:58.359Z,59.13
2023-02-19T14:46:33.758Z,58.10
2023-02-19T14:49:08.788Z,57.71
2023-02-19T14:51:44.155Z,58.83
2023-02-19T14:54:19.008Z,59.11
2023-02-19T14:56:53.384Z,59.14
2023-02-19T14:59:28.288Z,58.86
2023-02-19T15:02:02.364Z,58.98
2023-02-19T15:04:36.318Z,58.86
2023-02-19T15:07:11.857Z,58.94
2023-02-19T15:09:45.705Z,59.12
2023-02-19T15:12:21.451Z,59.58
2023-02-19T15:14:56.385Z,60.09
2023-02-19T15:17:31.403Z,59.82
2023-02-19T15:20:06.250Z,60.12
2023-02-19T15:22:38.560Z,60.58
2023-02-19T15:25:12.805Z,60.47
2023-02-19T15:27:44.964Z,60.65
2023-02-19T15:30:26.072Z,59.91
2023-02-19T15:32:59.987Z,60.06
2023-02-19T15:35:33.607Z,60.16
2023-02-19T15:38:06.549Z,60.14
2023-02-19T15:40:38.591Z,59.94
2023-02-19T15:43:24.878Z,60.96
2023-02-19T15:46:01.434Z,61.71
2023-02-19T15:48:36.691Z,61.41
2023-02-19T15:51:13.086Z,61.48
2023-02-19T15:53:47.027Z,61.71
2023-02-19T15:56:28.239Z,62.19
2023-02-19T15:59:03.617Z,62.51
2023-02-19T16:01:36.910Z,62.56
2023-02-19T16:04:12.070Z,62.91
2023-02-19T16:06:56.293Z,63.26
2023-02-19T16:09:34.877Z,63.49
2023-02-19T16:12:22.045Z,63.65
2023-02-19T16:14:53.955Z,63.65
2023-02-19T16:17:28.186Z,63.35
2023-02-19T16:20:01.273Z,63.47
2023-02-19T16:22:36.134Z,63.66
2023-02-19T16:25:09.437Z,63.66
2023-02-19T16:27:43.004Z,63.80
2023-02-19T16:30:29.083Z,63.54
2023-02-19T16:33:22.825Z,62.94
2023-02-19T16:35:57.329Z,63.10
2023-02-19T16:38:29.799Z,63.03
2023-02-19T16:41:16.504Z,63.26
2023-02-19T16:43:48.643Z,63.18
2023-02-19T16:46:22.252Z,63.11
2023-02-19T16:48:55.131Z,63.03
2023-02-19T16:51:29.302Z,63.08
2023-02-19T16:54:01.169Z,62.58
2023-02-19T16:56:33.126Z,62.95
2023-02-19T16:59:05.119Z,63.06
2023-02-19T17:01:38.139Z,63.12
2023-02-19T17:04:12.732Z,62.59
2023-02-19T17:06:45.739Z,62.61
2023-02-19T17:09:17.737Z,62.71
2023-02-19T17:11:49.723Z,62.63
2023-02-19T17:14:21.932Z,62.71
2023-02-19T17:16:53.810Z,62.15
2023-02-19T17:19:26.128Z,62.07
2023-02-19T17:21:58.862Z,61.57
2023-02-19T17:24:30.995Z,61.33
2023-02-19T17:27:02.851Z,61.14
2023-02-19T17:29:37.346Z,60.52
2023-02-19T17:32:09.396Z,60.78
2023-02-19T17:34:42.232Z,60.61
2023-02-19T17:37:17.208Z,60.23
2023-02-19T17:39:51.738Z,60.13
2023-02-19T17:42:23.948Z,59.91
2023-02-19T17:44:55.849Z,59.69
2023-02-19T17:47:28.129Z,60.10
2023-02-19T17:50:01.350Z,59.54
2023-02-19T17:52:33.408Z,59.15
2023-02-19T17:55:05.521Z,59.07
2023-02-19T17:57:37.344Z,59.47
2023-02-19T18:00:12.601Z,58.98
2023-02-19T18:02:47.216Z,59.15
2023-02-19T18:05:20.018Z,59.79
2023-02-19T18:08:02.411Z,59.27
2023-02-19T18:10:36.889Z,59.31
2023-02-19T18:13:09.404Z,58.90
2023-02-19T18:19:00.026Z,58.67
2023-02-19T18:21:32.190Z,58.55
2023-02-19T18:24:16.228Z,60.49
2023-02-19T18:26:52.057Z,58.53
2023-02-19T18:29:26.113Z,58.11
2023-02-19T18:31:59.863Z,57.71
2023-02-19T18:34:32.860Z,57.63
2023-02-19T18:37:05.229Z,57.55
2023-02-19T18:39:37.251Z,57.57
2023-02-19T18:42:13.582Z,58.00
2023-02-19T18:44:48.404Z,58.16
2023-02-19T18:47:19.008Z,58.41
2023-02-19T18:49:51.559Z,58.20
2023-02-19T18:52:26.648Z,58.51
2023-02-19T18:54:58.763Z,58.37
2023-02-19T18:57:31.191Z,58.46
2023-02-19T19:00:03.136Z,58.15
2023-02-19T19:02:48.654Z,58.32
2023-02-19T19:05:23.349Z,58.35
2023-02-19T19:07:56.608Z,58.06
2023-02-19T19:10:28.970Z,58.31
2023-02-19T19:13:01.280Z,58.14
2023-02-19T19:15:33.433Z,58.58
2023-02-19T19:18:05.598Z,58.84
2023-02-19T19:20:37.645Z,58.47
2023-02-19T19:23:09.778Z,58.76
2023-02-19T19:25:41.688Z,58.64
2023-02-19T19:28:15.236Z,58.24
2023-02-19T19:30:47.171Z,58.74
2023-02-19T19:33:19.329Z,58.56
2023-02-19T19:35:52.131Z,58.79
2023-02-19T19:38:24.412Z,59.07
2023-02-19T19:40:56.415Z,59.12
2023-02-19T19:43:31.513Z,59.25
2023-02-19T19:46:04.547Z,59.33
2023-02-19T19:48:39.096Z,59.57
2023-02-19T19:51:11.642Z,59.60
2023-02-19T19:53:46.050Z,59.65
2023-02-19T19:56:18.024Z,59.48
2023-02-19T19:58:50.694Z,59.31
2023-02-19T20:01:23.761Z,59.15
2023-02-19T20:03:55.748Z,59.44
2023-02-19T20:06:29.908Z,59.34
2023-02-19T20:09:02.429Z,59.48
2023-02-19T20:11:34.436Z,59.44
2023-02-19T20:14:06.438Z,59.77
2023-02-19T20:16:38.442Z,59.79
2023-02-19T20:19:10.982Z,59.48
2023-02-19T20:21:46.748Z,59.98
2023-02-19T20:24:20.414Z,59.68
2023-02-19T20:26:52.402Z,60.06
2023-02-19T20:29:25.185Z,59.84
2023-02-19T20:31:59.614Z,60.08
2023-02-19T20:34:32.288Z,60.10
2023-02-19T20:37:04.127Z,59.96
2023-02-19T20:39:37.692Z,59.86
2023-02-19T20:42:10.089Z,60.08
2023-02-19T20:44:42.511Z,60.12
2023-02-19T20:47:14.352Z,60.35
2023-02-19T20:49:48.341Z,60.58
2023-02-19T20:52:19.108Z,60.71
2023-02-19T20:54:51.001Z,61.08
2023-02-19T20:57:23.058Z,61.19
2023-02-19T20:59:55.008Z,61.13
2023-02-19T21:02:29.471Z,61.51
2023-02-19T21:05:02.255Z,61.38
2023-02-19T21:07:34.486Z,61.73
2023-02-19T21:10:07.925Z,61.67
2023-02-19T21:12:42.345Z,61.92
2023-02-19T21:15:14.973Z,61.78
2023-02-19T21:17:48.855Z,61.96
2023-02-19T21:20:22.011Z,61.99
2023-02-19T21:22:53.965Z,62.22
2023-02-19T21:25:25.841Z,62.36
2023-02-19T21:27:57.871Z,62.48
2023-02-19T21:30:29.857Z,62.42
2023-02-19T21:33:01.800Z,62.61
2023-02-19T21:35:34.278Z,62.73
2023-02-19T21:38:06.179Z,62.84
2023-02-19T21:40:38.110Z,62.95
2023-02-19T21:43:10.027Z,62.89
2023-02-19T21:45:42.892Z,62.99
2023-02-19T21:48:15.321Z,63.15
2023-02-19T21:50:47.358Z,63.24
2023-02-19T21:53:19.526Z,63.31
2023-02-19T21:55:58.393Z,63.44
2023-02-19T21:58:30.807Z,63.38
2023-02-19T22:01:03.086Z,63.63
2023-02-19T22:03:35.098Z,63.60
2023-02-19T22:06:07.878Z,63.74
2023-02-19T22:08:39.806Z,63.88
2023-02-19T22:11:11.837Z,64.20
2023-02-19T22:13:43.698Z,64.22
2023-02-19T22:16:15.757Z,64.25
2023-02-19T22:18:55.887Z,64.28
2023-02-19T22:21:32.591Z,64.53
2023-02-19T22:24:06.383Z,64.72
2023-02-19T22:26:39.495Z,64.97
2023-02-19T22:29:13.214Z,64.98
2023-02-19T22:31:45.162Z,65.02
2023-02-19T22:34:25.178Z,65.20
2023-02-19T22:36:57.065Z,65.39
2023-02-19T22:39:29.431Z,65.52
2023-02-19T22:42:01.468Z,65.84
2023-02-19T22:44:34.619Z,66.02
2023-02-19T22:47:06.564Z,66.35
2023-02-19T22:49:41.091Z,66.55
2023-02-19T22:52:14.308Z,66.62
2023-02-19T22:54:46.861Z,66.88
2023-02-19T22:57:18.829Z,67.14
2023-02-19T22:59:53.242Z,67.27
2023-02-19T23:02:27.741Z,67.47
2023-02-19T23:04:59.730Z,67.59
2023-02-19T23:07:32.011Z,68.07
2023-02-19T23:10:06.804Z,68.43
2023-02-19T23:12:40.881Z,68.33
2023-02-19T23:15:14.488Z,68.43
2023-02-19T23:17:47.247Z,69.00
2023-02-19T23:20:20.450Z,69.03
2023-02-19T23:22:54.370Z,69.26
2023-02-19T23:25:26.633Z,69.31
2023-02-19T23:27:59.054Z,69.44
2023-02-19T23:30:32.308Z,69.75
2023-02-19T23:33:04.890Z,69.95
2023-02-19T23:35:37.344Z,69.92
2023-02-19T23:38:10.321Z,70.46
2023-02-19T23:40:45.268Z,71.11
2023-02-19T23:43:17.311Z,72.33
2023-02-19T23:45:51.799Z,74.39
2023-02-19T23:48:23.735Z,74.78
2023-02-19T23:50:55.590Z,75.01
2023-02-19T23:53:27.471Z,75.20
2023-02-19T23:56:00.518Z,76.55
2023-02-19T23:58:32.917Z,76.35
